createdAt,value
2023-05-06T00:02:23.264Z,6.07
2023-05-06T00:07:25.202Z,7.07
2023-05-06T00:12:27.404Z,4.20
2023-05-06T00:17:29.316Z,9.73
2023-05-06T00:22:31.182Z,5.22
2023-05-06T00:27:33.507Z,4.95
2023-05-06T00:32:35.878Z,4.50
2023-05-06T00:37:37.637Z,5.03
2023-05-06T00:42:39.360Z,9.15
2023-05-06T00:47:43.273Z,5.10
2023-05-06T00:52:46.437Z,4.60
2023-05-06T00:57:51.934Z,8.27
2023-05-06T01:02:56.940Z,7.53
2023-05-06T01:08:17.874Z,12.85
2023-05-06T01:13:39.818Z,4.60
2023-05-06T01:18:44.487Z,8.27
2023-05-06T01:23:55.392Z,6.25
2023-05-06T01:28:58.399Z,8.40
2023-05-06T01:34:06.525Z,5.30
2023-05-06T01:39:14.273Z,5.40
2023-05-06T01:44:21.748Z,7.68
2023-05-06T01:49:26.244Z,5.70
2023-05-06T01:54:28.078Z,6.75
2023-05-06T01:59:29.967Z,6.50
2023-05-06T02:04:32.454Z,8.38
2023-05-06T02:09:34.790Z,7.65
2023-05-06T02:14:38.390Z,7.35
2023-05-06T02:19:41.255Z,8.80
2023-05-06T02:24:43.110Z,6.47
2023-05-06T02:29:45.136Z,4.88
2023-05-06T02:34:47.021Z,11.20
2023-05-06T02:39:48.878Z,6.50
2023-05-06T02:44:50.746Z,7.03
2023-05-06T02:49:52.640Z,6.30
2023-05-06T02:54:54.598Z,5.85
2023-05-06T02:59:56.529Z,14.77
2023-05-06T03:04:58.380Z,4.28
2023-05-06T03:10:00.933Z,5.30
2023-05-06T03:15:06.362Z,7.65
2023-05-06T03:20:08.906Z,5.07
2023-05-06T03:25:13.724Z,7.38
2023-05-06T03:30:17.352Z,4.78
2023-05-06T03:35:23.412Z,6.47
2023-05-06T03:40:29.928Z,6.20
2023-05-06T03:45:32.710Z,6.40
2023-05-06T03:50:37.916Z,7.43
2023-05-06T03:55:40.076Z,6.35
2023-05-06T04:00:42.365Z,5.40
2023-05-06T04:05:46.005Z,7.50
2023-05-06T04:10:51.508Z,5.32
2023-05-06T04:16:05.804Z,7.25
2023-05-06T04:21:13.092Z,7.20
2023-05-06T04:26:17.475Z,6.95
2023-05-06T04:31:21.346Z,4.80
2023-05-06T04:36:25.604Z,4.60
2023-05-06T04:41:46.747Z,4.57
2023-05-06T04:46:53.133Z,6.40
2023-05-06T04:51:55.219Z,5.47
2023-05-06T04:56:57.204Z,7.05
2023-05-06T05:01:59.524Z,7.53
2023-05-06T05:07:01.613Z,7.43
2023-05-06T05:12:06.002Z,7.13
2023-05-06T05:17:11.789Z,7.82
2023-05-06T05:22:14.742Z,8.10
2023-05-06T05:27:16.949Z,9.68
2023-05-06T05:32:20.393Z,9.88
2023-05-06T05:37:22.361Z,10.15
2023-05-06T05:42:24.168Z,8.85
2023-05-06T05:47:27.215Z,8.48
2023-05-06T05:52:30.251Z,10.02
2023-05-06T05:57:32.418Z,8.98
2023-05-06T06:02:34.881Z,9.48
2023-05-06T06:07:36.878Z,9.20
2023-05-06T06:12:38.927Z,9.93
2023-05-06T06:17:41.742Z,10.48
2023-05-06T06:22:44.440Z,11.55
2023-05-06T06:27:46.394Z,8.95
2023-05-06T06:32:53.569Z,7.80
2023-05-06T06:37:55.709Z,11.90
2023-05-06T06:42:57.533Z,14.52
2023-05-06T06:48:22.824Z,8.40
2023-05-06T06:53:33.783Z,10.60
2023-05-06T06:58:35.720Z,9.55
2023-05-06T07:03:37.557Z,9.50
2023-05-06T07:08:39.575Z,11.05
2023-05-06T07:13:41.528Z,16.77
2023-05-06T07:18:43.446Z,9.10
2023-05-06T07:23:45.387Z,9.05
2023-05-06T07:28:47.187Z,11.35
2023-05-06T07:33:49.019Z,12.80
2023-05-06T07:38:51.222Z,11.57
2023-05-06T07:43:53.658Z,11.52
2023-05-06T07:48:55.526Z,12.05
2023-05-06T07:53:57.647Z,12.85
2023-05-06T07:59:00.150Z,16.85
2023-05-06T08:04:02.046Z,19.27
2023-05-06T08:09:04.100Z,14.23
2023-05-06T08:14:05.911Z,16.48
2023-05-06T08:19:07.788Z,20.13
2023-05-06T08:24:11.059Z,13.73
2023-05-06T08:29:13.631Z,11.77
2023-05-06T08:34:18.605Z,14.75
2023-05-06T08:39:20.644Z,14.30
2023-05-06T08:44:24.852Z,17.48
2023-05-06T08:49:27.143Z,14.20
2023-05-06T08:54:29.562Z,12.40
2023-05-06T08:59:33.007Z,13.57
2023-05-06T09:04:35.521Z,14.00
2023-05-06T09:09:37.516Z,16.95
2023-05-06T09:14:40.088Z,15.77
2023-05-06T09:19:42.365Z,17.13
2023-05-06T09:24:44.276Z,17.25
2023-05-06T09:30:05.407Z,21.17
2023-05-06T09:35:08.963Z,15.68
2023-05-06T09:40:11.963Z,15.65
2023-05-06T09:45:16.004Z,14.38
2023-05-06T09:50:18.122Z,22.02
2023-05-06T09:55:21.467Z,14.35
2023-05-06T10:00:28.368Z,18.38
2023-05-06T10:05:32.521Z,16.50
2023-05-06T10:10:35.198Z,22.15
2023-05-06T10:15:38.728Z,14.43
2023-05-06T10:20:43.024Z,15.73
2023-05-06T10:25:46.920Z,16.95
2023-05-06T10:30:51.148Z,14.23
2023-05-06T10:36:24.048Z,16.33
2023-05-06T10:41:28.236Z,14.77
2023-05-06T10:46:30.841Z,15.13
2023-05-06T10:51:34.071Z,12.48
2023-05-06T10:56:37.121Z,19.25
2023-05-06T11:01:44.063Z,18.13
2023-05-06T11:06:48.556Z,14.57
2023-05-06T11:11:52.216Z,14.48
2023-05-06T11:16:55.145Z,14.15
2023-05-06T11:22:02.353Z,12.80
2023-05-06T11:27:06.094Z,15.57
2023-05-06T11:32:23.482Z,16.40
2023-05-06T11:37:29.952Z,12.45
2023-05-06T11:42:32.029Z,14.32
2023-05-06T11:47:33.960Z,12.93
2023-05-06T11:52:35.942Z,10.63
2023-05-06T11:57:44.932Z,12.55
2023-05-06T12:02:47.337Z,12.82
2023-05-06T12:07:49.756Z,8.18
2023-05-06T12:12:51.990Z,9.15
2023-05-06T12:17:54.160Z,6.18
2023-05-06T12:23:07.041Z,6.55
2023-05-06T12:28:19.371Z,7.22
2023-05-06T12:33:21.480Z,7.13
2023-05-06T12:38:23.391Z,5.50
2023-05-06T12:43:30.774Z,8.02
2023-05-06T12:48:32.763Z,9.93
2023-05-06T12:53:35.691Z,7.43
2023-05-06T12:58:38.728Z,10.02
2023-05-06T13:03:41.365Z,13.98
2023-05-06T13:08:43.954Z,12.20
2023-05-06T13:13:45.975Z,11.25
2023-05-06T13:18:47.810Z,15.48
2023-05-06T13:23:49.826Z,10.82
2023-05-06T13:28:54.764Z,12.10
2023-05-06T13:33:56.814Z,11.05
2023-05-06T13:38:58.644Z,10.73
2023-05-06T13:44:00.638Z,10.48
2023-05-06T13:49:02.666Z,9.63
2023-05-06T13:54:04.668Z,13.70
2023-05-06T13:59:08.300Z,8.15
2023-05-06T14:04:10.966Z,9.68
2023-05-06T14:09:13.101Z,10.43
2023-05-06T14:14:15.699Z,12.75
2023-05-06T14:19:17.547Z,13.70
2023-05-06T14:24:19.499Z,12.07
2023-05-06T14:29:21.421Z,17.60
2023-05-06T14:34:23.374Z,11.80
2023-05-06T14:39:25.420Z,12.95
2023-05-06T14:44:27.605Z,15.23
2023-05-06T14:49:29.493Z,12.93
2023-05-06T14:54:31.372Z,15.82
2023-05-06T14:59:33.359Z,19.67
2023-05-06T15:04:35.680Z,15.88
2023-05-06T15:09:39.684Z,19.83
2023-05-06T15:14:42.114Z,12.80
2023-05-06T15:19:44.122Z,13.80
2023-05-06T15:24:45.968Z,16.10
2023-05-06T15:29:47.819Z,14.98
2023-05-06T15:34:49.822Z,14.25
2023-05-06T15:39:51.695Z,19.00
2023-05-06T15:44:55.097Z,19.98
2023-05-06T15:49:57.119Z,20.65
2023-05-06T15:55:00.027Z,14.98
2023-05-06T16:00:02.655Z,21.20
2023-05-06T16:05:09.749Z,14.30
2023-05-06T16:10:11.939Z,12.73
2023-05-06T16:15:14.078Z,17.73
2023-05-06T16:20:16.348Z,17.25
2023-05-06T16:25:18.273Z,15.98
2023-05-06T16:30:20.383Z,19.92
2023-05-06T16:35:22.430Z,16.95
2023-05-06T16:40:24.418Z,13.45
2023-05-06T16:45:26.316Z,13.80
2023-05-06T16:50:28.308Z,11.50
2023-05-06T16:55:30.137Z,14.07
2023-05-06T17:00:32.196Z,14.38
2023-05-06T17:05:34.405Z,19.00
2023-05-06T17:10:36.840Z,16.67
2023-05-06T17:15:38.701Z,16.52
2023-05-06T17:20:54.215Z,21.80
2023-05-06T17:25:57.468Z,19.20
2023-05-06T17:30:59.322Z,20.00
2023-05-06T17:36:01.366Z,16.88
2023-05-06T17:41:03.325Z,17.30
2023-05-06T17:46:06.959Z,17.63
2023-05-06T17:51:08.970Z,19.98
2023-05-06T17:56:11.132Z,18.38
2023-05-06T18:01:13.485Z,22.27
2023-05-06T18:06:15.741Z,23.83
2023-05-06T18:11:17.736Z,15.07
2023-05-06T18:16:20.249Z,15.57
2023-05-06T18:21:22.468Z,17.88
2023-05-06T18:26:42.748Z,13.95
2023-05-06T18:31:46.691Z,12.32
2023-05-06T18:36:49.785Z,11.93
2023-05-06T18:41:51.615Z,19.95
2023-05-06T18:46:53.403Z,16.50
2023-05-06T18:51:56.358Z,20.20
2023-05-06T18:56:58.775Z,15.18
2023-05-06T19:02:01.945Z,14.20
2023-05-06T19:07:05.178Z,15.40
2023-05-06T19:12:07.082Z,13.55
2023-05-06T19:17:08.956Z,20.60
2023-05-06T19:22:11.249Z,13.82
2023-05-06T19:27:13.076Z,14.90
2023-05-06T19:32:14.779Z,12.82
2023-05-06T19:37:16.565Z,20.27
2023-05-06T19:42:21.275Z,17.88
2023-05-06T19:47:23.402Z,12.85
2023-05-06T19:52:30.645Z,12.82
2023-05-06T19:57:33.975Z,13.63
2023-05-06T20:02:38.855Z,13.18
2023-05-06T20:07:41.587Z,11.23
2023-05-06T20:12:43.632Z,10.60
2023-05-06T20:17:45.568Z,13.95
2023-05-06T20:22:47.684Z,10.15
2023-05-06T20:27:49.539Z,11.85
2023-05-06T20:32:52.106Z,9.45
2023-05-06T20:37:54.703Z,9.90
2023-05-06T20:42:56.621Z,11.05
2023-05-06T20:47:58.811Z,9.07
2023-05-06T20:53:01.664Z,9.77
2023-05-06T20:58:04.203Z,9.60
2023-05-06T21:03:06.172Z,8.68
2023-05-06T21:08:08.843Z,8.73
2023-05-06T21:13:10.722Z,7.93
2023-05-06T21:18:13.758Z,11.32
2023-05-06T21:23:16.293Z,9.57
2023-05-06T21:28:18.126Z,13.65
2023-05-06T21:33:19.966Z,10.73
2023-05-06T21:38:21.852Z,12.45
2023-05-06T21:43:23.684Z,9.60
2023-05-06T21:48:25.500Z,7.65
2023-05-06T21:53:27.295Z,9.70
2023-05-06T21:58:29.071Z,12.02
2023-05-06T22:03:31.088Z,7.72
2023-05-06T22:08:33.209Z,8.52
2023-05-06T22:13:35.249Z,8.48
2023-05-06T22:18:41.661Z,8.25
2023-05-06T22:23:43.562Z,9.52
2023-05-06T22:28:46.068Z,12.52
2023-05-06T22:33:49.620Z,12.13
2023-05-06T22:38:51.425Z,8.68
2023-05-06T22:43:53.677Z,7.90
2023-05-06T22:48:55.484Z,8.50
2023-05-06T22:53:57.315Z,8.20
2023-05-06T22:58:59.179Z,7.30
2023-05-06T23:04:01.072Z,10.43
2023-05-06T23:09:02.981Z,8.45
2023-05-06T23:14:05.029Z,7.20
2023-05-06T23:19:06.780Z,10.85
2023-05-06T23:24:09.120Z,9.05
2023-05-06T23:29:10.880Z,10.63
2023-05-06T23:34:12.644Z,11.43
2023-05-06T23:39:17.704Z,11.73
2023-05-06T23:44:19.542Z,8.07
2023-05-06T23:49:21.481Z,7.85
2023-05-06T23:54:23.368Z,9.10
2023-05-06T23:59:25.292Z,9.60
